Time;durP1;ratioP1;P1;durP2;ratioP2;P2;SDS_P1;SDS_P2;PMS_P1;PMS_P2;Temp;Humidity;BMP_temperature;BMP_pressure;BME280_temperature;BME280_humidity;BME280_pressure;Samples;Min_cycle;Max_cycle;Signal;HPM_P1;HPM_P2
2022/10/11 00:02:19;;;;;;;6.72;1.52;;;14.00;99.90;;;;;;5017315;28;20057;-75
2022/10/11 00:04:44;;;;;;;7.40;1.10;;;14.00;99.90;;;;;;5017682;28;20128;-75
2022/10/11 00:07:10;;;;;;;2.42;1.00;;;13.90;99.90;;;;;;5018366;28;20479;-74
2022/10/11 00:09:36;;;;;;;11.57;1.60;;;13.80;99.90;;;;;;5017247;28;20021;-75
2022/10/11 00:12:01;;;;;;;1.98;1.08;;;13.70;99.90;;;;;;5017173;28;20026;-74
2022/10/11 00:14:27;;;;;;;7.75;1.40;;;13.70;99.90;;;;;;5034943;28;20021;-75
2022/10/11 00:16:55;;;;;;;4.15;1.30;;;13.60;99.90;;;;;;5034898;28;20033;-74
2022/10/11 00:19:21;;;;;;;7.28;1.00;;;13.60;99.90;;;;;;5034723;28;20021;-75
2022/10/11 00:21:47;;;;;;;9.35;1.55;;;13.50;99.90;;;;;;5034643;28;20388;-75
2022/10/11 00:24:14;;;;;;;5.45;1.10;;;13.50;99.90;;;;;;5018096;28;20092;-74
2022/10/11 00:26:41;;;;;;;5.55;1.23;;;13.50;99.90;;;;;;5034869;28;20020;-75
2022/10/11 00:29:06;;;;;;;7.78;1.10;;;13.60;99.90;;;;;;5017425;28;20025;-75
2022/10/11 00:31:32;;;;;;;9.13;1.58;;;13.50;99.90;;;;;;5017945;28;20079;-75
2022/10/11 00:33:57;;;;;;;10.60;1.58;;;13.50;99.90;;;;;;5016864;28;20116;-75
2022/10/11 00:36:23;;;;;;;6.60;1.05;;;13.50;99.90;;;;;;5016797;28;20021;-72
2022/10/11 00:38:48;;;;;;;9.23;1.92;;;13.40;99.90;;;;;;5016435;28;20033;-73
2022/10/11 00:41:15;;;;;;;13.23;2.65;;;13.20;99.90;;;;;;5035115;28;20037;-73
2022/10/11 00:43:40;;;;;;;7.30;1.30;;;13.20;99.90;;;;;;5016833;28;20032;-72
2022/10/11 00:46:12;;;;;;;10.23;1.52;;;13.20;99.90;;;;;;5016522;28;20025;-73
2022/10/11 00:48:52;;;;;;;11.65;1.00;;;13.10;99.90;;;;;;5016353;28;20025;-73
2022/10/11 00:51:42;;;;;;;7.88;1.10;;;13.10;99.90;;;;;;5016455;28;20026;-72
2022/10/11 00:54:12;;;;;;;13.25;1.60;;;13.00;99.90;;;;;;5034159;28;20033;-73
2022/10/11 00:56:39;;;;;;;8.25;1.00;;;13.00;99.90;;;;;;5016523;28;20076;-72
2022/10/11 00:59:10;;;;;;;8.55;1.50;;;12.90;99.90;;;;;;5033992;28;20030;-73
2022/10/11 01:01:36;;;;;;;6.75;1.00;;;12.90;99.90;;;;;;5034658;28;20028;-73
2022/10/11 01:04:02;;;;;;;11.20;1.40;;;12.90;99.90;;;;;;5034290;28;20030;-73
2022/10/11 01:06:28;;;;;;;9.05;1.25;;;12.90;99.90;;;;;;5017139;28;20029;-72
2022/10/11 01:08:54;;;;;;;5.80;1.33;;;12.90;99.90;;;;;;5017139;28;20025;-73
2022/10/11 01:11:23;;;;;;;8.13;1.80;;;12.80;99.90;;;;;;5016155;28;20033;-72
2022/10/11 01:14:08;;;;;;;10.65;1.80;;;12.80;99.90;;;;;;5016170;28;20028;-73
2022/10/11 01:16:51;;;;;;;8.23;1.83;;;12.80;99.90;;;;;;5016239;28;20021;-72
2022/10/11 01:19:45;;;;;;;11.50;1.77;;;12.70;99.90;;;;;;5016262;28;20052;-73
2022/10/11 01:22:43;;;;;;;6.13;1.15;;;12.60;99.90;;;;;;5019649;28;20037;-72
2022/10/11 01:25:27;;;;;;;9.02;1.58;;;12.60;99.90;;;;;;5016492;28;20083;-72
2022/10/11 01:28:11;;;;;;;5.53;1.33;;;12.50;99.90;;;;;;5016192;28;20022;-72
2022/10/11 01:30:37;;;;;;;7.35;1.15;;;12.40;99.90;;;;;;5015753;28;20428;-72
2022/10/11 01:33:17;;;;;;;8.95;1.73;;;12.40;99.90;;;;;;5033437;28;20060;-72
2022/10/11 01:35:59;;;;;;;9.57;1.20;;;12.40;99.90;;;;;;5015892;28;20029;-72
2022/10/11 01:38:45;;;;;;;11.35;1.75;;;12.30;99.90;;;;;;5033853;28;20025;-73
2022/10/11 01:41:27;;;;;;;7.00;1.58;;;12.30;99.90;;;;;;5033686;28;20033;-72
2022/10/11 01:43:56;;;;;;;23.10;4.20;;;12.20;99.90;;;;;;5015641;28;20096;-73
2022/10/11 01:46:23;;;;;;;9.80;1.65;;;12.20;99.90;;;;;;5015994;28;20044;-72
2022/10/11 01:48:53;;;;;;;6.53;1.23;;;12.10;99.90;;;;;;5015430;28;20026;-73
2022/10/11 01:51:23;;;;;;;10.82;2.05;;;12.10;99.90;;;;;;5016553;28;20024;-72
2022/10/11 01:54:03;;;;;;;10.25;1.88;;;12.00;99.90;;;;;;5033259;28;20029;-72
2022/10/11 01:57:00;;;;;;;6.13;1.40;;;12.00;99.90;;;;;;5015611;28;20240;-72
2022/10/11 01:59:31;;;;;;;12.18;1.58;;;12.00;99.90;;;;;;5016016;28;20030;-72
2022/10/11 02:02:28;;;;;;;12.57;2.33;;;11.90;99.90;;;;;;5015533;28;20109;-72
2022/10/11 02:05:07;;;;;;;11.80;2.70;;;11.80;99.90;;;;;;5015521;28;20026;-72
2022/10/11 02:07:50;;;;;;;5.05;1.20;;;11.70;99.90;;;;;;5033358;28;20091;-72
2022/10/11 02:10:32;;;;;;;5.78;1.30;;;11.70;99.90;;;;;;5033142;28;20018;-72
2022/10/11 02:13:29;;;;;;;11.52;1.23;;;11.60;99.90;;;;;;5015546;28;20017;-72
2022/10/11 02:15:57;;;;;;;8.68;1.50;;;11.60;99.90;;;;;;5015457;28;20159;-72
2022/10/11 02:18:30;;;;;;;12.27;1.80;;;11.60;99.90;;;;;;5015487;28;20021;-72
2022/10/11 02:20:59;;;;;;;9.27;1.48;;;11.60;99.90;;;;;;5032982;28;20022;-72
2022/10/11 02:23:32;;;;;;;9.95;1.48;;;11.70;99.90;;;;;;5033353;28;20029;-72
2022/10/11 02:25:58;;;;;;;8.38;1.15;;;11.60;99.90;;;;;;5033730;28;20021;-72
2022/10/11 02:28:30;;;;;;;8.23;1.17;;;11.60;99.90;;;;;;5015772;28;20022;-72
2022/10/11 02:30:59;;;;;;;10.20;1.70;;;11.50;99.90;;;;;;5015605;28;20025;-72
2022/10/11 02:33:36;;;;;;;7.15;1.33;;;11.40;99.90;;;;;;5016064;28;20030;-72
2022/10/11 02:36:09;;;;;;;15.20;3.92;;;11.40;99.90;;;;;;5015701;28;20032;-72
2022/10/11 02:38:42;;;;;;;23.38;2.55;;;11.30;99.90;;;;;;5015949;28;20048;-72
2022/10/11 02:41:29;;;;;;;8.43;2.03;;;11.20;99.90;;;;;;5036635;28;20093;-72
2022/10/11 02:43:59;;;;;;;8.57;1.05;;;11.20;99.90;;;;;;5018826;28;20021;-72
2022/10/11 02:46:28;;;;;;;11.65;1.98;;;11.10;99.90;;;;;;5018882;28;20021;-72
2022/10/11 02:48:53;;;;;;;6.57;1.52;;;11.10;99.90;;;;;;5018601;28;20052;-73
2022/10/11 02:51:19;;;;;;;6.78;1.45;;;11.00;99.90;;;;;;5036377;28;20025;-72
2022/10/11 02:53:45;;;;;;;6.70;1.42;;;10.90;99.90;;;;;;5019519;28;20021;-72
2022/10/11 02:56:10;;;;;;;6.82;1.23;;;10.90;99.90;;;;;;5036266;28;20028;-72
2022/10/11 02:58:36;;;;;;;7.63;1.48;;;10.90;99.90;;;;;;5018854;28;20028;-72
2022/10/11 03:01:01;;;;;;;6.43;1.17;;;10.90;99.90;;;;;;5018939;28;20022;-72
2022/10/11 03:03:27;;;;;;;7.13;1.23;;;10.90;99.90;;;;;;5019041;28;20037;-72
2022/10/11 03:06:00;;;;;;;4.97;1.00;;;10.90;99.90;;;;;;5018468;28;20033;-72
2022/10/11 03:08:26;;;;;;;2.42;1.05;;;10.90;99.90;;;;;;5018745;28;20037;-72
2022/10/11 03:10:52;;;;;;;5.10;1.02;;;10.90;99.90;;;;;;5035981;28;20024;-72
2022/10/11 03:13:17;;;;;;;3.50;1.30;;;10.90;99.90;;;;;;5018859;28;20029;-72
2022/10/11 03:15:47;;;;;;;8.50;1.48;;;10.80;99.90;;;;;;5018608;28;20032;-72
2022/10/11 03:18:12;;;;;;;5.65;1.77;;;10.70;99.90;;;;;;5018474;28;20075;-73
2022/10/11 03:20:38;;;;;;;5.93;1.42;;;10.70;99.90;;;;;;5017993;28;20021;-72
2022/10/11 03:23:03;;;;;;;9.98;2.63;;;10.60;99.90;;;;;;5018159;28;20022;-73
2022/10/11 03:25:29;;;;;;;10.45;2.40;;;10.50;99.90;;;;;;5018008;28;20036;-72
2022/10/11 03:27:54;;;;;;;9.32;2.15;;;10.40;99.90;;;;;;5018525;28;20017;-72
2022/10/11 03:30:37;;;;;;;5.68;1.40;;;10.30;99.90;;;;;;5017830;28;20021;-72
2022/10/11 03:33:03;;;;;;;9.65;1.70;;;10.20;99.90;;;;;;5018487;28;20079;-72
2022/10/11 03:35:28;;;;;;;13.73;1.55;;;10.20;99.90;;;;;;5018237;28;20026;-72
2022/10/11 03:37:54;;;;;;;8.82;1.88;;;10.20;99.90;;;;;;5018277;28;20092;-72
2022/10/11 03:40:19;;;;;;;4.38;1.30;;;10.20;99.90;;;;;;5018224;28;20525;-72
2022/10/11 03:42:45;;;;;;;10.73;1.45;;;10.20;99.90;;;;;;5018007;28;20036;-72
2022/10/11 03:45:10;;;;;;;10.38;2.20;;;10.20;99.90;;;;;;5018026;28;20045;-72
2022/10/11 03:47:37;;;;;;;16.70;3.05;;;10.20;99.90;;;;;;5017603;28;20485;-72
2022/10/11 03:50:04;;;;;;;9.52;1.85;;;10.20;99.90;;;;;;5017256;28;20036;-72
2022/10/11 03:52:30;;;;;;;13.95;1.80;;;10.20;99.90;;;;;;5017522;28;20075;-72
2022/10/11 03:54:56;;;;;;;6.70;1.63;;;10.10;99.90;;;;;;5017526;28;20031;-72
2022/10/11 03:57:21;;;;;;;8.50;1.40;;;10.10;99.90;;;;;;5017316;28;20021;-72
2022/10/11 03:59:47;;;;;;;3.83;1.20;;;10.10;99.90;;;;;;5017843;28;20018;-72
2022/10/11 04:02:13;;;;;;;6.45;1.63;;;10.20;99.90;;;;;;5035252;28;20461;-72
2022/10/11 04:04:39;;;;;;;4.97;1.48;;;10.20;99.90;;;;;;5035014;28;20055;-72
2022/10/11 04:07:04;;;;;;;7.03;1.38;;;10.20;99.90;;;;;;5035063;28;20032;-72
2022/10/11 04:09:30;;;;;;;10.82;1.98;;;10.10;99.90;;;;;;5035157;28;20033;-72
2022/10/11 04:11:55;;;;;;;10.90;1.65;;;10.00;99.90;;;;;;5034777;28;20021;-72
2022/10/11 04:14:21;;;;;;;9.45;1.52;;;9.90;99.90;;;;;;5034893;28;20117;-76
2022/10/11 04:16:46;;;;;;;6.72;2.20;;;9.80;99.90;;;;;;5017036;28;20116;-72
2022/10/11 04:19:12;;;;;;;5.63;2.15;;;9.70;99.90;;;;;;5016971;28;20120;-72
2022/10/11 04:21:37;;;;;;;9.65;1.90;;;9.70;99.90;;;;;;5017391;28;20022;-72
2022/10/11 04:24:03;;;;;;;10.15;2.03;;;9.70;99.90;;;;;;5017250;28;20052;-72
2022/10/11 04:26:29;;;;;;;6.25;1.65;;;9.60;99.90;;;;;;5017202;28;20021;-72
2022/10/11 04:28:54;;;;;;;6.35;1.55;;;9.50;99.90;;;;;;5016786;28;20037;-73
2022/10/11 04:31:20;;;;;;;5.32;2.08;;;9.50;99.90;;;;;;5016828;28;20104;-74
2022/10/11 04:33:45;;;;;;;8.02;1.80;;;9.50;99.90;;;;;;5016839;28;20099;-74
2022/10/11 04:36:11;;;;;;;5.50;1.70;;;9.60;99.90;;;;;;5034427;28;20065;-77
2022/10/11 04:38:36;;;;;;;8.80;1.88;;;9.50;99.90;;;;;;5034469;28;20029;-76
2022/10/11 04:41:10;;;;;;;7.93;1.75;;;9.50;99.90;;;;;;5017003;28;20033;-74
2022/10/11 04:43:36;;;;;;;11.98;1.80;;;9.50;99.90;;;;;;5016626;28;20035;-74
2022/10/11 04:46:02;;;;;;;10.48;2.65;;;9.50;99.90;;;;;;5016843;28;20112;-72
2022/10/11 04:48:27;;;;;;;14.43;1.80;;;9.40;99.90;;;;;;5034142;28;20094;-72
2022/10/11 04:50:53;;;;;;;11.45;2.15;;;9.40;99.90;;;;;;5016304;28;20028;-72
2022/10/11 04:53:19;;;;;;;12.48;2.95;;;9.30;99.90;;;;;;5016527;28;20049;-76
2022/10/11 04:56:03;;;;;;;14.35;2.42;;;9.30;99.90;;;;;;5016489;28;20021;-77
2022/10/11 04:58:30;;;;;;;6.72;1.63;;;9.20;99.90;;;;;;5016761;28;20025;-74
2022/10/11 05:00:56;;;;;;;6.97;1.50;;;9.20;99.90;;;;;;5033533;28;20480;-76
2022/10/11 05:03:22;;;;;;;5.63;1.65;;;9.20;99.90;;;;;;5016446;28;20034;-77
2022/10/11 05:05:48;;;;;;;8.35;1.52;;;9.20;99.90;;;;;;5034138;28;20047;-79
2022/10/11 05:08:13;;;;;;;4.88;1.35;;;9.10;99.90;;;;;;5017305;28;20455;-79
2022/10/11 05:10:39;;;;;;;4.45;1.38;;;9.20;99.90;;;;;;5017156;28;20021;-78
2022/10/11 05:13:06;;;;;;;7.07;2.70;;;9.30;99.90;;;;;;5016364;28;20022;-78
2022/10/11 05:15:31;;;;;;;12.70;2.88;;;9.30;99.90;;;;;;5033937;28;20028;-76
2022/10/11 05:17:57;;;;;;;10.88;4.10;;;9.30;99.90;;;;;;5015978;28;20021;-76
2022/10/11 05:20:22;;;;;;;15.88;6.20;;;9.20;99.90;;;;;;5016058;28;20025;-76
2022/10/11 05:22:48;;;;;;;18.02;7.32;;;9.20;99.90;;;;;;5033951;28;20029;-76
2022/10/11 05:25:13;;;;;;;18.23;6.18;;;9.30;99.90;;;;;;5033622;28;20029;-74
2022/10/11 05:27:39;;;;;;;15.38;5.53;;;9.50;99.90;;;;;;5015759;28;20056;-74
2022/10/11 05:30:05;;;;;;;7.95;3.85;;;9.50;99.90;;;;;;5015753;28;20022;-74
2022/10/11 05:32:31;;;;;;;12.20;3.95;;;9.60;99.90;;;;;;5015852;28;20024;-74
2022/10/11 05:34:56;;;;;;;8.98;2.75;;;9.50;99.90;;;;;;5033680;28;20021;-74
2022/10/11 05:37:22;;;;;;;10.20;2.65;;;9.50;99.90;;;;;;5015777;28;20075;-74
2022/10/11 05:39:47;;;;;;;5.72;1.73;;;9.50;99.90;;;;;;5016301;28;20041;-74
2022/10/11 05:42:13;;;;;;;6.38;2.05;;;9.50;99.90;;;;;;5015581;28;20025;-74
2022/10/11 05:44:38;;;;;;;9.30;1.92;;;9.40;99.90;;;;;;5015644;28;20021;-74
2022/10/11 05:47:04;;;;;;;6.72;2.47;;;9.20;99.90;;;;;;5016749;28;20033;-72
2022/10/11 05:49:30;;;;;;;6.30;2.60;;;8.90;99.90;;;;;;5015746;28;20063;-72
2022/10/11 05:51:55;;;;;;;7.03;2.13;;;8.70;99.90;;;;;;5015906;28;20022;-72
2022/10/11 05:54:21;;;;;;;6.28;2.05;;;8.50;99.90;;;;;;5015656;28;20017;-72
2022/10/11 05:56:47;;;;;;;13.15;3.45;;;8.50;99.90;;;;;;5016375;28;20030;-72
2022/10/11 05:59:13;;;;;;;9.20;1.88;;;8.70;99.90;;;;;;5015496;28;20160;-72
2022/10/11 06:01:38;;;;;;;8.43;2.25;;;8.80;99.90;;;;;;5015419;28;20060;-72
2022/10/11 06:04:04;;;;;;;18.40;2.47;;;8.70;99.90;;;;;;5016123;28;20018;-73
2022/10/11 06:06:30;;;;;;;9.20;2.42;;;8.70;99.90;;;;;;5015573;28;20069;-74
2022/10/11 06:08:56;;;;;;;10.73;2.05;;;8.60;99.90;;;;;;5033291;28;20025;-74
2022/10/11 06:11:24;;;;;;;12.90;2.30;;;8.70;99.90;;;;;;5015850;28;20017;-74
2022/10/11 06:13:53;;;;;;;8.73;2.40;;;8.70;99.90;;;;;;5035998;28;20137;-74
2022/10/11 06:16:19;;;;;;;9.73;2.33;;;8.80;99.90;;;;;;5037592;28;20025;-74
2022/10/11 06:18:45;;;;;;;8.73;2.45;;;8.90;99.90;;;;;;5020033;28;20072;-74
2022/10/11 06:21:11;;;;;;;9.18;2.30;;;8.90;99.90;;;;;;5019196;28;20030;-75
2022/10/11 06:23:37;;;;;;;17.77;2.63;;;8.90;99.90;;;;;;5019290;28;20021;-74
2022/10/11 06:26:05;;;;;;;7.68;1.60;;;8.70;99.90;;;;;;5019126;28;20076;-74
2022/10/11 06:28:32;;;;;;;7.47;2.20;;;8.60;99.90;;;;;;5036798;28;20436;-74
2022/10/11 06:30:58;;;;;;;8.90;2.25;;;8.50;99.90;;;;;;5019800;28;20029;-74
2022/10/11 06:33:24;;;;;;;6.15;1.85;;;8.70;99.90;;;;;;5036694;28;20080;-73
2022/10/11 06:35:55;;;;;;;9.32;2.20;;;9.00;99.90;;;;;;5019012;28;20022;-72
2022/10/11 06:38:21;;;;;;;10.65;2.20;;;9.10;99.90;;;;;;5036778;28;20113;-72
2022/10/11 06:40:46;;;;;;;7.38;2.22;;;9.10;99.90;;;;;;5019030;28;20069;-72
2022/10/11 06:43:12;;;;;;;8.02;2.17;;;9.10;99.90;;;;;;5018861;28;20041;-72
2022/10/11 06:45:37;;;;;;;5.43;1.88;;;9.10;99.90;;;;;;5018896;28;20072;-72
2022/10/11 06:48:04;;;;;;;8.82;2.67;;;9.10;99.90;;;;;;5036875;28;20064;-72
2022/10/11 06:50:31;;;;;;;7.68;2.45;;;9.10;99.90;;;;;;5021316;28;20183;-72
2022/10/11 06:52:57;;;;;;;10.07;2.53;;;9.10;99.90;;;;;;5019619;28;20033;-72
2022/10/11 06:55:23;;;;;;;9.25;2.13;;;9.20;99.90;;;;;;5018742;28;20025;-72
2022/10/11 06:57:48;;;;;;;11.77;3.25;;;9.50;99.90;;;;;;5018788;28;20021;-72
2022/10/11 07:00:14;;;;;;;8.85;2.55;;;9.70;99.90;;;;;;5019308;28;20022;-72
2022/10/11 07:02:40;;;;;;;12.90;3.60;;;9.90;99.90;;;;;;5018528;28;20219;-72
2022/10/11 07:05:06;;;;;;;8.80;2.05;;;10.00;99.90;;;;;;5036228;28;20036;-72
2022/10/11 07:07:32;;;;;;;10.27;2.08;;;10.10;99.90;;;;;;5018354;28;20029;-72
2022/10/11 07:09:57;;;;;;;6.95;2.60;;;10.20;99.90;;;;;;5018327;28;20025;-72
2022/10/11 07:12:23;;;;;;;5.40;2.13;;;10.00;99.90;;;;;;5019564;28;20045;-72
2022/10/11 07:14:48;;;;;;;12.23;2.53;;;9.80;99.90;;;;;;5018518;28;20118;-72
2022/10/11 07:17:14;;;;;;;9.00;1.75;;;9.70;99.90;;;;;;5018223;28;20026;-72
2022/10/11 07:19:39;;;;;;;7.78;1.95;;;9.70;99.90;;;;;;5018122;28;20075;-72
2022/10/11 07:22:05;;;;;;;5.72;1.70;;;9.90;99.90;;;;;;5018939;28;20014;-72
2022/10/11 07:24:30;;;;;;;8.70;2.75;;;10.10;99.90;;;;;;5018027;28;20060;-72
2022/10/11 07:26:56;;;;;;;4.00;1.88;;;10.30;99.90;;;;;;5018074;28;20021;-72
2022/10/11 07:29:21;;;;;;;15.85;2.50;;;10.40;99.90;;;;;;5018225;28;20024;-72
2022/10/11 07:31:47;;;;;;;4.18;1.65;;;10.40;99.90;;;;;;5018107;28;20076;-72
2022/10/11 07:34:12;;;;;;;6.57;1.88;;;10.50;99.90;;;;;;5018758;28;20021;-72
2022/10/11 07:36:38;;;;;;;10.85;2.95;;;10.50;99.90;;;;;;5035581;28;20037;-72
2022/10/11 07:39:06;;;;;;;6.38;1.95;;;10.60;99.90;;;;;;5018206;28;20033;-73
2022/10/11 07:41:32;;;;;;;11.38;2.28;;;10.50;99.90;;;;;;5017968;28;20021;-72
2022/10/11 07:43:57;;;;;;;7.47;2.25;;;10.50;99.90;;;;;;5035510;28;20021;-72
2022/10/11 07:46:23;;;;;;;7.55;2.15;;;10.50;99.90;;;;;;5017706;28;20022;-72
2022/10/11 07:48:51;;;;;;;7.10;2.05;;;10.40;99.90;;;;;;5018085;28;20028;-72
2022/10/11 07:51:19;;;;;;;9.93;2.33;;;10.20;99.90;;;;;;5035416;28;20049;-72
2022/10/11 07:53:55;;;;;;;10.27;1.98;;;10.30;99.90;;;;;;5017545;28;20558;-72
2022/10/11 07:56:26;;;;;;;10.85;2.35;;;10.60;99.90;;;;;;5017582;28;20204;-72
2022/10/11 07:58:54;;;;;;;5.07;1.37;;;10.70;99.90;;;;;;5018374;28;20033;-72
2022/10/11 08:01:20;;;;;;;12.68;2.67;;;10.90;99.90;;;;;;5017475;28;20144;-76
2022/10/11 08:03:46;;;;;;;7.72;2.08;;;11.00;99.90;;;;;;5017609;28;20029;-74
2022/10/11 08:06:14;;;;;;;7.18;2.35;;;11.10;99.90;;;;;;5017754;28;20040;-75
2022/10/11 08:08:40;;;;;;;13.15;2.30;;;11.10;99.90;;;;;;5017154;28;20031;-74
2022/10/11 08:11:06;;;;;;;7.15;1.58;;;11.10;99.90;;;;;;5017619;28;20022;-74
2022/10/11 08:13:32;;;;;;;16.77;2.50;;;11.10;99.90;;;;;;5017350;28;20034;-74
2022/10/11 08:15:59;;;;;;;12.38;2.58;;;11.20;99.90;;;;;;5034804;28;20025;-76
2022/10/11 08:18:25;;;;;;;12.13;2.05;;;11.30;99.90;;;;;;5017013;28;20022;-74
2022/10/11 08:20:51;;;;;;;4.78;2.03;;;11.40;99.90;;;;;;5034727;28;20043;-74
2022/10/11 08:23:17;;;;;;;9.85;2.38;;;11.50;99.90;;;;;;5017132;28;20022;-75
2022/10/11 08:25:45;;;;;;;9.23;2.00;;;11.50;99.90;;;;;;5017024;28;20026;-76
2022/10/11 08:28:17;;;;;;;11.18;2.45;;;11.60;99.90;;;;;;5034630;28;20036;-76
2022/10/11 08:30:51;;;;;;;13.35;1.98;;;11.70;99.90;;;;;;5016959;28;20113;-76
2022/10/11 08:33:17;;;;;;;8.55;2.03;;;11.70;99.90;;;;;;5034752;28;20021;-77
2022/10/11 08:35:43;;;;;;;8.20;2.25;;;11.70;99.90;;;;;;5016804;28;20063;-76
2022/10/11 08:38:09;;;;;;;11.75;1.83;;;11.80;99.90;;;;;;5034426;28;20096;-76
2022/10/11 08:40:35;;;;;;;9.60;2.00;;;11.80;99.90;;;;;;5016974;28;20029;-76
2022/10/11 08:43:07;;;;;;;15.25;2.42;;;11.80;99.90;;;;;;5016742;28;20029;-76
2022/10/11 08:45:49;;;;;;;7.65;2.40;;;11.90;99.90;;;;;;5016605;28;20484;-76
2022/10/11 08:48:37;;;;;;;15.85;5.05;;;12.00;99.90;;;;;;5016660;28;20148;-76
2022/10/11 08:51:13;;;;;;;6.60;1.98;;;12.10;99.90;;;;;;5015814;28;20034;-77
2022/10/11 08:53:45;;;;;;;9.77;2.55;;;12.30;99.90;;;;;;5017585;28;20472;-77
2022/10/11 08:56:11;;;;;;;;;;;12.40;99.90;;;;;;5018507;28;20025;-76
2022/10/11 08:59:02;;;;;;;9.93;2.10;;;12.50;99.90;;;;;;5016498;28;20060;-77
2022/10/11 09:01:29;;;;;;;13.77;1.98;;;12.60;99.90;;;;;;5034340;28;20032;-77
2022/10/11 09:03:58;;;;;;;11.85;1.95;;;12.70;99.90;;;;;;5017047;28;20036;-76
2022/10/11 09:06:57;;;;;;;11.93;2.28;;;12.80;99.90;;;;;;5016343;28;20056;-76
2022/10/11 09:09:51;;;;;;;14.73;1.70;;;12.90;99.90;;;;;;5015980;28;20120;-77
2022/10/11 09:12:47;;;;;;;10.40;2.03;;;12.90;99.90;;;;;;5033970;28;20025;-76
2022/10/11 09:15:39;;;;;;;8.45;2.00;;;13.00;99.90;;;;;;5016704;28;20029;-76
2022/10/11 09:18:16;;;;;;;11.80;1.97;;;13.00;99.90;;;;;;5033741;28;20108;-76
2022/10/11 09:21:07;;;;;;;9.10;1.73;;;13.10;99.90;;;;;;5015878;28;20271;-76
2022/10/11 09:23:47;;;;;;;7.28;1.75;;;13.20;99.90;;;;;;5033676;28;20025;-77
2022/10/11 09:26:28;;;;;;;11.65;1.95;;;13.20;99.90;;;;;;5015925;28;20027;-76
2022/10/11 09:29:05;;;;;;;11.40;1.73;;;13.30;99.90;;;;;;5015820;28;20117;-76
2022/10/11 09:31:31;;;;;;;9.13;1.80;;;13.40;99.90;;;;;;5035190;28;20035;-77
2022/10/11 09:34:04;;;;;;;11.32;1.77;;;13.50;99.90;;;;;;5016167;28;20063;-77
2022/10/11 09:36:41;;;;;;;13.35;1.80;;;13.60;99.90;;;;;;5016469;28;20117;-76
2022/10/11 09:39:29;;;;;;;5.68;2.55;;;13.70;99.90;;;;;;5015677;28;20037;-77
2022/10/11 09:42:01;;;;;;;8.27;1.85;;;13.80;99.90;;;;;;5003254;28;20064;-76
2022/10/11 09:44:31;;;;;;;6.57;1.30;;;13.80;99.90;;;;;;5015959;28;20116;-77
2022/10/11 09:46:57;;;;;;;11.98;1.50;;;13.90;99.90;;;;;;5033144;28;20033;-77
2022/10/11 09:49:29;;;;;;;7.57;1.80;;;13.90;99.90;;;;;;5015385;28;20054;-77
2022/10/11 09:51:59;;;;;;;7.97;1.52;;;13.90;99.90;;;;;;5015570;28;20025;-77
2022/10/11 09:54:42;;;;;;;8.32;2.00;;;14.10;99.90;;;;;;5016225;28;20044;-77
2022/10/11 09:57:18;;;;;;;8.48;1.98;;;14.20;99.90;;;;;;5015780;28;20075;-77
2022/10/11 10:00:25;;;;;;;13.65;1.65;;;14.20;99.90;;;;;;5016345;28;20109;-77
2022/10/11 10:02:53;;;;;;;13.25;2.00;;;14.30;99.90;;;;;;5001899;28;20043;-76
2022/10/11 10:05:30;;;;;;;6.35;1.08;;;14.30;99.90;;;;;;5033153;28;20032;-76
2022/10/11 10:08:21;;;;;;;14.07;1.88;;;14.40;99.90;;;;;;5033109;28;20026;-77
2022/10/11 10:10:59;;;;;;;9.45;1.40;;;14.60;99.90;;;;;;5001831;28;20030;-76
2022/10/11 10:13:46;;;;;;;9.60;1.85;;;14.80;99.90;;;;;;5016253;28;20022;-77
2022/10/11 10:16:22;;;;;;;11.65;1.73;;;15.10;99.90;;;;;;5033334;28;20021;-75
2022/10/11 10:18:53;;;;;;;8.18;1.58;;;15.20;99.90;;;;;;5016045;28;20121;-74
2022/10/11 10:21:31;;;;;;;9.88;1.63;;;15.30;99.90;;;;;;5033125;28;20025;-74
2022/10/11 10:24:02;;;;;;;6.32;1.58;;;15.40;99.90;;;;;;5015287;28;20044;-76
2022/10/11 10:26:29;;;;;;;6.55;1.13;;;15.50;99.90;;;;;;5015286;28;20511;-73
2022/10/11 10:29:15;;;;;;;11.30;2.00;;;15.60;99.90;;;;;;5015381;28;20036;-73
2022/10/11 10:31:49;;;;;;;9.75;1.83;;;15.90;99.90;;;;;;5015325;28;20017;-73
2022/10/11 10:34:20;;;;;;;8.82;2.15;;;15.90;99.90;;;;;;5014998;28;20036;-77
2022/10/11 10:36:53;;;;;;;8.70;1.50;;;15.90;99.90;;;;;;5015676;28;20067;-73
2022/10/11 10:39:45;;;;;;;6.00;1.00;;;16.20;99.90;;;;;;5015660;28;20125;-73
2022/10/11 10:42:16;;;;;;;8.32;1.40;;;16.30;99.90;;;;;;5022332;28;20057;-76
2022/10/11 10:44:42;;;;;;;12.63;1.58;;;16.40;99.90;;;;;;5015510;28;20029;-77
2022/10/11 10:47:19;;;;;;;10.00;1.48;;;16.50;99.90;;;;;;5015108;28;20079;-75
2022/10/11 10:50:00;;;;;;;7.72;1.15;;;16.60;99.90;;;;;;5015001;28;20025;-76
2022/10/11 10:52:46;;;;;;;7.88;1.55;;;16.70;99.90;;;;;;5032806;28;20385;-75
2022/10/11 10:55:36;;;;;;;14.73;2.10;;;16.70;99.90;;;;;;5033059;28;20025;-74
2022/10/11 10:58:09;;;;;;;5.50;1.92;;;16.80;99.90;;;;;;5015000;28;20120;-76
2022/10/11 11:00:49;;;;;;;8.00;1.10;;;16.90;99.90;;;;;;5035601;28;20017;-73
2022/10/11 11:03:23;;;;;;;5.45;1.95;;;17.00;99.90;;;;;;5036175;28;20025;-72
2022/10/11 11:06:01;;;;;;;5.97;1.52;;;17.00;99.90;;;;;;5019419;28;20025;-72
2022/10/11 11:08:56;;;;;;;4.47;1.00;;;17.10;99.90;;;;;;5036353;28;20057;-73
2022/10/11 11:11:49;;;;;;;5.57;1.58;;;17.30;99.90;;;;;;5018337;28;20026;-72
2022/10/11 11:14:21;;;;;;;3.53;1.02;;;17.30;99.90;;;;;;5018790;28;20047;-72
2022/10/11 11:17:12;;;;;;;9.73;1.48;;;17.50;99.90;;;;;;5018958;28;20060;-77
2022/10/11 11:20:18;;;;;;;5.80;1.25;;;17.50;99.90;;;;;;5018759;28;20021;-77
2022/10/11 11:23:10;;;;;;;8.50;2.03;;;17.70;99.90;;;;;;5018162;28;20021;-77
2022/10/11 11:26:13;;;;;;;5.75;1.08;;;17.70;99.90;;;;;;5035932;28;20017;-76
2022/10/11 11:28:59;;;;;;;8.55;1.42;;;17.60;99.90;;;;;;4936708;29;20067;-76
2022/10/11 11:31:57;;;;;;;5.95;1.70;;;17.60;99.90;;;;;;5013839;28;20049;-75
2022/10/11 11:34:27;;;;;;;11.32;1.58;;;17.80;99.90;;;;;;5035597;28;20018;-74
2022/10/11 11:37:05;;;;;;;9.25;2.03;;;17.70;99.90;;;;;;5036057;28;20033;-72
2022/10/11 11:39:42;;;;;;;9.20;1.48;;;17.80;99.90;;;;;;5017625;28;20140;-72
2022/10/11 11:42:14;;;;;;;10.95;1.77;;;17.60;99.90;;;;;;5017749;28;20026;-74
2022/10/11 11:44:44;;;;;;;7.65;1.25;;;17.80;99.90;;;;;;5035716;28;20033;-74
2022/10/11 11:47:32;;;;;;;5.10;1.25;;;17.70;99.90;;;;;;5017670;28;20056;-77
2022/10/11 11:50:04;;;;;;;7.95;2.45;;;18.10;99.90;;;;;;5035269;28;20101;-75
2022/10/11 11:52:35;;;;;;;10.10;1.95;;;18.10;99.90;;;;;;5017673;28;20021;-74
2022/10/11 11:55:09;;;;;;;;;;;17.70;99.90;;;;;;5035861;28;20056;-74
2022/10/11 11:57:48;;;;;;;4.55;1.30;;;17.80;99.90;;;;;;5017576;28;20422;-74
2022/10/11 12:00:16;;;;;;;6.43;1.45;;;18.10;99.90;;;;;;5035143;28;20021;-72
2022/10/11 12:02:55;;;;;;;12.52;2.90;;;18.40;99.90;;;;;;5017403;28;20025;-72
2022/10/11 12:05:27;;;;;;;4.80;1.40;;;18.50;99.90;;;;;;5018197;28;20037;-72
2022/10/11 12:08:19;;;;;;;9.40;1.60;;;18.60;99.90;;;;;;5035031;28;20022;-73
2022/10/11 12:10:47;;;;;;;17.63;1.75;;;18.40;99.90;;;;;;5016310;28;20018;-72
2022/10/11 12:13:24;;;;;;;11.27;1.95;;;18.30;99.90;;;;;;5017130;28;20025;-72
2022/10/11 12:16:05;;;;;;;5.68;1.65;;;18.20;99.90;;;;;;5017206;28;20041;-72
2022/10/11 12:18:33;;;;;;;7.37;1.17;;;18.30;99.90;;;;;;5035138;28;20030;-72
2022/10/11 12:21:15;;;;;;;5.40;1.92;;;18.70;99.90;;;;;;5017355;28;20091;-77
2022/10/11 12:23:46;;;;;;;6.72;1.33;;;19.10;99.90;;;;;;5034823;28;20029;-77
2022/10/11 12:26:27;;;;;;;6.13;1.45;;;19.20;99.90;;;;;;5017249;28;20032;-77
2022/10/11 12:29:42;;;;;;;4.65;1.30;;;19.40;99.90;;;;;;5016801;28;20026;-76
2022/10/11 12:32:09;;;;;;;8.40;1.50;;;19.50;99.90;;;;;;5034779;28;20017;-72
2022/10/11 12:34:39;;;;;;;5.88;2.17;;;19.40;99.90;;;;;;5034521;28;20022;-77
2022/10/11 12:37:30;;;;;;;5.47;1.60;;;19.30;99.90;;;;;;5016910;28;20030;-77
2022/10/11 12:39:58;;;;;;;5.20;1.30;;;19.00;99.90;;;;;;5016416;28;20034;-77
2022/10/11 12:42:34;;;;;;;7.63;1.95;;;19.00;99.90;;;;;;5034488;28;20164;-76
2022/10/11 12:45:12;;;;;;;5.25;1.55;;;19.00;99.90;;;;;;5017497;28;20052;-77
2022/10/11 12:47:54;;;;;;;6.70;1.60;;;19.00;99.90;;;;;;5016859;28;20030;-77
2022/10/11 12:50:37;;;;;;;8.70;1.30;;;19.10;99.90;;;;;;5016492;28;20024;-77
2022/10/11 12:53:08;;;;;;;7.25;1.60;;;19.00;99.90;;;;;;5016910;28;20032;-77
2022/10/11 12:55:49;;;;;;;9.80;1.63;;;18.80;99.90;;;;;;5034539;28;20473;-74
2022/10/11 12:58:23;;;;;;;9.90;2.13;;;19.00;99.90;;;;;;5034012;28;20104;-74
2022/10/11 13:00:53;;;;;;;6.00;1.20;;;19.30;99.90;;;;;;5016363;28;20036;-74
2022/10/11 13:03:39;;;;;;;16.23;2.35;;;19.20;99.90;;;;;;5033890;28;20029;-74
2022/10/11 13:06:27;;;;;;;5.05;2.40;;;19.20;99.90;;;;;;5034038;28;20091;-74
2022/10/11 13:09:09;;;;;;;6.82;1.30;;;19.20;99.90;;;;;;5016127;28;20056;-74
2022/10/11 13:11:42;;;;;;;5.53;1.52;;;19.30;99.90;;;;;;5034152;28;20021;-74